Terminal Aerodrome Forecast
Issued by NWS Grand Junction, CO

Home | Current Version | Previous Version | Text Only | Print | Product List | Glossary On
Versions: 1 2 3 4 5 6 7 8 9 10 11 12 13 14 15 16 17 18 19 20 21 22 23 24 25 26 27 28 29 30 31 32 33 34 35 36 37 38 39
000
FTUS45 KGJT 291120
TAFGJT
TAF
KGJT 291120Z 2912/3012 12009KT P6SM FEW150
     FM291800 16005KT P6SM FEW120 SCT250
     FM292100 28007KT P6SM FEW100 SCT250
     FM300000 34008KT P6SM SCT250
     FM300300 02007KT P6SM SCT250
     FM300800 10007KT P6SM SCT250=

USA.gov is the U.S. government's official web portal to all federal, state and local government web resources and services.